Time;durP1;ratioP1;P1;durP2;ratioP2;P2;SDS_P1;SDS_P2;PMS_P1;PMS_P2;Temp;Humidity;BMP_temperature;BMP_pressure;BME280_temperature;BME280_humidity;BME280_pressure;Samples;Min_cycle;Max_cycle;Signal;HPM_P1;HPM_P2
2023/03/15 00:00:28;;;;;;;4.82;1.58;;;2.90;99.90;;;;;;5030828;28;20116;-70
2023/03/15 00:02:53;;;;;;;4.32;1.50;;;3.00;99.90;;;;;;5032192;28;20533;-70
2023/03/15 00:05:20;;;;;;;7.88;1.80;;;3.00;99.90;;;;;;5030651;28;20586;-70
2023/03/15 00:07:46;;;;;;;6.85;1.85;;;3.10;99.90;;;;;;5031444;28;20037;-71
2023/03/15 00:10:12;;;;;;;7.38;2.10;;;3.20;99.90;;;;;;5053680;22;20115;-73
2023/03/15 00:12:38;;;;;;;6.45;2.20;;;3.20;99.90;;;;;;5030554;28;20052;-72
2023/03/15 00:15:04;;;;;;;8.02;2.33;;;3.20;99.90;;;;;;5031372;28;20064;-72
2023/03/15 00:17:33;;;;;;;10.10;3.08;;;3.10;99.90;;;;;;5030445;28;20041;-72
2023/03/15 00:19:59;;;;;;;8.15;2.15;;;3.10;99.90;;;;;;5030131;28;20091;-72
2023/03/15 00:22:25;;;;;;;9.02;2.85;;;3.10;99.90;;;;;;5030551;28;20517;-72
2023/03/15 00:24:50;;;;;;;11.55;2.30;;;3.00;99.90;;;;;;5014070;28;20117;-72
2023/03/15 00:27:16;;;;;;;6.72;1.98;;;2.90;99.90;;;;;;5030423;28;20485;-72
2023/03/15 00:29:41;;;;;;;8.10;2.42;;;2.90;99.90;;;;;;5031605;28;20041;-73
2023/03/15 00:32:07;;;;;;;6.80;1.80;;;2.90;99.90;;;;;;5031576;28;20034;-72
2023/03/15 00:34:32;;;;;;;9.65;2.30;;;2.90;99.90;;;;;;5031193;28;20511;-72
2023/03/15 00:36:58;;;;;;;8.43;2.10;;;2.90;99.90;;;;;;5030592;28;20567;-72
2023/03/15 00:39:24;;;;;;;9.52;2.78;;;2.90;99.90;;;;;;5031688;28;20069;-72
2023/03/15 00:41:50;;;;;;;13.35;2.10;;;2.80;99.90;;;;;;5030424;28;20038;-72
2023/03/15 00:44:16;;;;;;;8.93;2.13;;;2.80;99.90;;;;;;5031363;28;20057;-72
2023/03/15 00:46:42;;;;;;;9.80;2.85;;;2.80;99.90;;;;;;5031606;28;20037;-72
2023/03/15 00:49:07;;;;;;;9.90;2.35;;;2.80;99.90;;;;;;5031640;28;20034;-72
2023/03/15 00:51:36;;;;;;;12.88;1.85;;;2.80;99.90;;;;;;5031435;28;20408;-72
2023/03/15 00:54:02;;;;;;;7.97;1.60;;;2.80;99.90;;;;;;5031154;28;20523;-72
2023/03/15 00:56:30;;;;;;;9.18;1.77;;;2.80;99.90;;;;;;5030216;28;20038;-72
2023/03/15 00:58:56;;;;;;;10.32;1.95;;;2.70;99.90;;;;;;5031485;28;20037;-72
2023/03/15 01:01:27;;;;;;;7.63;1.83;;;2.70;99.90;;;;;;5031282;28;20041;-72
2023/03/15 01:03:53;;;;;;;12.60;2.00;;;2.80;99.90;;;;;;5029831;28;20037;-73
2023/03/15 01:06:25;;;;;;;9.13;1.52;;;2.70;99.90;;;;;;5013601;28;20133;-72
2023/03/15 01:08:51;;;;;;;10.20;1.88;;;2.70;99.90;;;;;;5030033;28;20070;-72
2023/03/15 01:11:21;;;;;;;4.78;1.48;;;2.70;99.90;;;;;;5031189;28;20037;-72
2023/03/15 01:13:46;;;;;;;13.45;3.40;;;2.70;99.90;;;;;;5030999;28;20065;-72
2023/03/15 01:16:13;;;;;;;9.45;2.15;;;2.70;99.90;;;;;;5030278;28;20147;-72
2023/03/15 01:18:40;;;;;;;9.43;2.10;;;2.70;99.90;;;;;;5029939;28;20069;-72
2023/03/15 01:21:07;;;;;;;13.07;1.63;;;2.80;99.90;;;;;;5032199;28;20120;-72
2023/03/15 01:23:32;;;;;;;9.32;1.92;;;2.80;99.90;;;;;;5033730;28;20116;-72
2023/03/15 01:26:04;;;;;;;7.70;1.17;;;2.70;99.90;;;;;;5034884;28;20084;-72
2023/03/15 01:28:29;;;;;;;9.00;1.67;;;2.80;99.90;;;;;;5033540;28;20052;-72
2023/03/15 01:30:55;;;;;;;10.43;1.77;;;2.70;99.90;;;;;;5034837;28;20030;-72
2023/03/15 01:33:21;;;;;;;7.97;1.85;;;2.80;99.90;;;;;;5034808;28;20140;-72
2023/03/15 01:35:47;;;;;;;7.57;1.73;;;2.80;99.90;;;;;;5034714;28;20041;-72
2023/03/15 01:38:13;;;;;;;10.02;1.92;;;2.80;99.90;;;;;;5033099;28;20037;-72
2023/03/15 01:40:42;;;;;;;11.65;1.90;;;2.70;99.90;;;;;;5034684;28;20045;-73
2023/03/15 01:43:16;;;;;;;5.63;1.40;;;2.70;99.90;;;;;;5034384;28;20045;-72
2023/03/15 01:45:56;;;;;;;5.07;1.25;;;2.70;99.90;;;;;;5033517;28;20046;-72
2023/03/15 01:48:43;;;;;;;7.20;1.70;;;2.70;99.90;;;;;;5033320;28;20049;-72
2023/03/15 01:51:30;;;;;;;4.85;1.13;;;2.60;99.90;;;;;;5034515;28;20050;-72
2023/03/15 01:54:02;;;;;;;13.35;1.38;;;2.60;99.90;;;;;;5032873;28;20048;-72
2023/03/15 01:56:29;;;;;;;6.80;1.40;;;2.60;99.90;;;;;;5034519;28;20048;-72
2023/03/15 01:58:57;;;;;;;5.72;1.23;;;2.60;99.90;;;;;;5016648;28;20048;-72
2023/03/15 02:01:23;;;;;;;7.65;1.80;;;2.60;99.90;;;;;;5033010;28;20496;-72
2023/03/15 02:03:55;;;;;;;4.93;1.63;;;2.50;99.90;;;;;;5032598;28;20550;-72
2023/03/15 02:06:22;;;;;;;13.05;2.10;;;2.50;99.90;;;;;;5033044;28;20037;-72
2023/03/15 02:09:08;;;;;;;7.63;2.47;;;2.60;99.90;;;;;;5032847;28;20037;-72
2023/03/15 02:11:35;;;;;;;5.97;2.13;;;2.60;99.90;;;;;;5032849;28;20046;-72
2023/03/15 02:14:03;;;;;;;4.85;1.08;;;2.50;99.90;;;;;;5032540;28;20412;-72
2023/03/15 02:16:30;;;;;;;10.15;2.42;;;2.50;99.90;;;;;;5033985;28;20038;-72
2023/03/15 02:18:55;;;;;;;6.50;1.25;;;2.50;99.90;;;;;;5032637;28;20040;-73
2023/03/15 02:21:24;;;;;;;8.88;1.50;;;2.50;99.90;;;;;;5033950;28;20112;-73
2023/03/15 02:24:03;;;;;;;13.20;2.00;;;2.50;99.90;;;;;;5033770;28;20046;-72
2023/03/15 02:26:36;;;;;;;6.25;1.33;;;2.60;99.90;;;;;;5032672;28;20041;-72
2023/03/15 02:29:02;;;;;;;4.43;1.33;;;2.50;99.90;;;;;;5033715;28;20050;-72
2023/03/15 02:31:27;;;;;;;11.05;1.88;;;2.50;99.90;;;;;;5031929;28;20041;-72
2023/03/15 02:33:56;;;;;;;8.27;1.65;;;2.50;99.90;;;;;;5032422;28;20522;-72
2023/03/15 02:36:24;;;;;;;7.50;1.60;;;2.50;99.90;;;;;;5033820;28;20470;-72
2023/03/15 02:38:51;;;;;;;11.20;1.77;;;2.50;99.90;;;;;;5033711;28;20570;-72
2023/03/15 02:41:32;;;;;;;7.45;1.67;;;2.50;99.90;;;;;;5033438;28;20091;-72
2023/03/15 02:44:03;;;;;;;9.57;1.75;;;2.50;99.90;;;;;;5031970;28;20593;-72
2023/03/15 02:46:29;;;;;;;9.00;1.60;;;2.40;99.90;;;;;;5033512;28;20469;-72
2023/03/15 02:48:54;;;;;;;9.57;1.40;;;2.50;99.90;;;;;;5032081;28;20072;-72
2023/03/15 02:51:23;;;;;;;9.30;1.95;;;2.40;99.90;;;;;;5033378;28;20408;-72
2023/03/15 02:53:48;;;;;;;8.18;1.67;;;2.40;99.90;;;;;;5033073;28;20519;-72
2023/03/15 02:56:14;;;;;;;7.35;1.42;;;2.30;99.90;;;;;;5033287;28;20056;-72
2023/03/15 02:58:40;;;;;;;9.13;1.48;;;2.30;99.90;;;;;;5031971;28;20079;-72
2023/03/15 03:01:07;;;;;;;9.05;1.95;;;2.30;99.90;;;;;;5015442;28;20560;-72
2023/03/15 03:03:32;;;;;;;5.78;1.20;;;2.30;99.90;;;;;;5032928;28;20123;-73
2023/03/15 03:05:58;;;;;;;7.32;1.38;;;2.20;99.90;;;;;;5033022;28;20089;-72
2023/03/15 03:08:23;;;;;;;8.02;1.25;;;2.20;99.90;;;;;;5033060;28;20099;-72
2023/03/15 03:10:49;;;;;;;6.10;2.13;;;2.20;99.90;;;;;;5031461;28;20050;-72
2023/03/15 03:13:14;;;;;;;9.00;1.52;;;2.20;99.90;;;;;;5032762;28;20041;-73
2023/03/15 03:15:44;;;;;;;5.80;1.20;;;2.20;99.90;;;;;;5025663;28;20068;-72
2023/03/15 03:18:10;;;;;;;5.70;1.60;;;2.20;99.90;;;;;;5023342;28;20056;-72
2023/03/15 03:20:35;;;;;;;5.05;1.63;;;2.20;99.90;;;;;;5032797;28;20041;-72
2023/03/15 03:23:04;;;;;;;6.57;1.65;;;2.10;99.90;;;;;;5031660;28;20049;-72
2023/03/15 03:25:31;;;;;;;6.70;2.08;;;2.10;99.90;;;;;;5031604;28;20095;-72
2023/03/15 03:27:57;;;;;;;6.10;1.48;;;2.10;99.90;;;;;;5032845;28;20049;-72
2023/03/15 03:30:23;;;;;;;6.93;1.35;;;2.10;99.90;;;;;;5032603;28;20448;-72
2023/03/15 03:32:49;;;;;;;8.13;1.60;;;2.10;99.90;;;;;;5031492;28;20045;-72
2023/03/15 03:35:15;;;;;;;14.60;1.90;;;2.10;99.90;;;;;;5032338;28;20120;-72
2023/03/15 03:37:40;;;;;;;8.27;1.63;;;2.10;99.90;;;;;;5032397;28;20080;-72
2023/03/15 03:40:07;;;;;;;5.47;1.35;;;2.10;99.90;;;;;;5032356;28;20042;-72
2023/03/15 03:42:34;;;;;;;6.72;1.27;;;2.00;99.90;;;;;;5031776;28;20057;-72
2023/03/15 03:45:00;;;;;;;6.43;1.50;;;2.10;99.90;;;;;;5030760;28;20148;-72
2023/03/15 03:47:26;;;;;;;7.65;1.30;;;2.00;99.90;;;;;;5031275;28;20528;-72
2023/03/15 03:49:51;;;;;;;6.63;1.52;;;2.10;99.90;;;;;;5032141;28;20059;-72
2023/03/15 03:52:17;;;;;;;6.32;1.60;;;2.00;99.90;;;;;;5032092;28;20394;-72
2023/03/15 03:54:42;;;;;;;12.38;1.80;;;2.00;99.90;;;;;;5032063;28;20099;-72
2023/03/15 03:57:09;;;;;;;9.07;1.42;;;2.00;99.90;;;;;;5031117;28;20045;-72
2023/03/15 03:59:35;;;;;;;7.35;1.42;;;2.00;99.90;;;;;;5032122;28;20493;-72
2023/03/15 04:02:00;;;;;;;8.38;1.70;;;2.00;99.90;;;;;;5032038;28;20088;-72
2023/03/15 04:04:26;;;;;;;7.10;1.65;;;2.00;99.90;;;;;;5031771;28;20124;-72
2023/03/15 04:06:53;;;;;;;8.27;1.50;;;2.00;99.90;;;;;;5031881;28;20045;-72
2023/03/15 04:09:20;;;;;;;6.68;1.42;;;2.00;99.90;;;;;;5031932;28;20041;-72
2023/03/15 04:11:46;;;;;;;8.52;1.50;;;1.90;99.90;;;;;;5030942;28;20064;-72
2023/03/15 04:14:13;;;;;;;9.38;1.63;;;1.90;99.90;;;;;;5031679;28;20041;-72
2023/03/15 04:16:39;;;;;;;8.15;1.90;;;1.90;99.90;;;;;;5030512;28;20501;-72
2023/03/15 04:19:06;;;;;;;7.07;1.52;;;1.90;99.90;;;;;;5031882;28;20079;-73
2023/03/15 04:21:32;;;;;;;8.55;1.33;;;1.80;99.90;;;;;;5031622;28;20456;-72
2023/03/15 04:23:58;;;;;;;3.38;0.93;;;1.80;99.90;;;;;;5031631;28;20040;-72
2023/03/15 04:26:25;;;;;;;6.88;1.20;;;1.90;99.90;;;;;;5031932;28;20045;-72
2023/03/15 04:28:53;;;;;;;9.88;2.55;;;1.80;99.90;;;;;;5030625;28;20519;-73
2023/03/15 04:31:19;;;;;;;5.72;1.83;;;1.80;99.90;;;;;;5031631;28;20045;-73
2023/03/15 04:33:44;;;;;;;5.43;1.73;;;1.80;99.90;;;;;;5013855;28;20040;-73
2023/03/15 04:36:17;;;;;;;6.20;1.25;;;1.90;99.90;;;;;;5031484;28;20042;-72
2023/03/15 04:38:45;;;;;;;9.55;2.00;;;1.90;99.90;;;;;;5031998;28;20037;-72
2023/03/15 04:41:12;;;;;;;4.40;2.03;;;1.90;99.90;;;;;;5030562;28;20037;-72
2023/03/15 04:43:38;;;;;;;7.47;1.55;;;1.80;99.90;;;;;;5030014;28;20408;-72
2023/03/15 04:46:04;;;;;;;4.30;1.00;;;1.90;99.90;;;;;;5030499;28;20045;-73
2023/03/15 04:48:30;;;;;;;4.63;1.20;;;1.90;99.90;;;;;;5030238;28;20112;-72
2023/03/15 04:50:56;;;;;;;4.32;0.80;;;1.90;99.90;;;;;;5031530;28;20041;-72
2023/03/15 04:53:21;;;;;;;5.70;1.45;;;1.90;99.90;;;;;;5030378;28;20077;-72
2023/03/15 04:55:47;;;;;;;9.27;3.38;;;1.90;99.90;;;;;;5033639;28;20048;-72
2023/03/15 04:58:12;;;;;;;5.45;1.73;;;1.90;99.90;;;;;;5035521;28;20045;-73
2023/03/15 05:00:38;;;;;;;13.77;2.20;;;1.90;99.90;;;;;;5034038;28;20041;-73
2023/03/15 05:03:03;;;;;;;6.85;1.38;;;1.90;99.90;;;;;;5035283;28;20038;-72
2023/03/15 05:05:32;;;;;;;4.65;0.93;;;1.90;99.90;;;;;;5035233;28;20040;-72
2023/03/15 05:07:57;;;;;;;6.07;1.92;;;1.90;99.90;;;;;;5035308;28;20045;-72
2023/03/15 05:10:24;;;;;;;5.65;1.50;;;1.80;99.90;;;;;;5017245;28;20504;-72
2023/03/15 05:12:50;;;;;;;8.18;2.15;;;1.90;99.90;;;;;;5034053;28;20041;-72
2023/03/15 05:15:15;;;;;;;5.63;1.33;;;1.80;99.90;;;;;;5033625;28;20042;-72
2023/03/15 05:17:41;;;;;;;4.03;1.00;;;1.80;99.90;;;;;;5035225;28;20120;-72
2023/03/15 05:20:11;;;;;;;7.38;2.00;;;1.80;99.90;;;;;;5035262;28;20073;-72
2023/03/15 05:22:40;;;;;;;4.30;1.20;;;1.80;99.90;;;;;;5033729;28;20049;-72
2023/03/15 05:25:07;;;;;;;4.03;1.17;;;1.80;99.90;;;;;;5034747;28;20087;-73
2023/03/15 05:27:33;;;;;;;4.60;1.50;;;1.80;99.90;;;;;;5034920;28;20048;-72
2023/03/15 05:30:03;;;;;;;5.72;1.55;;;1.70;99.90;;;;;;5033551;28;20038;-72
2023/03/15 05:32:33;;;;;;;4.75;1.20;;;1.70;99.90;;;;;;5034773;28;20084;-72
2023/03/15 05:35:03;;;;;;;8.93;1.50;;;1.70;99.90;;;;;;5034531;28;20492;-72
2023/03/15 05:37:31;;;;;;;3.53;0.93;;;1.80;99.90;;;;;;5034888;28;20045;-72
2023/03/15 05:39:57;;;;;;;9.35;1.40;;;1.70;99.90;;;;;;5032857;28;20041;-72
2023/03/15 05:42:26;;;;;;;7.60;1.08;;;1.60;99.90;;;;;;5034672;28;20111;-72
2023/03/15 05:44:52;;;;;;;4.28;1.60;;;1.60;99.90;;;;;;5034226;28;20042;-72
2023/03/15 05:47:18;;;;;;;5.72;1.13;;;1.60;99.90;;;;;;5034526;28;20385;-72
2023/03/15 05:49:44;;;;;;;3.78;1.15;;;1.60;99.90;;;;;;5034361;28;20042;-72
2023/03/15 05:52:09;;;;;;;4.28;1.42;;;1.70;99.90;;;;;;5016669;28;20076;-72
2023/03/15 05:54:35;;;;;;;4.18;1.27;;;1.70;99.90;;;;;;5034207;28;20091;-73
2023/03/15 05:57:00;;;;;;;3.17;0.95;;;1.70;99.90;;;;;;5034376;28;20030;-72
2023/03/15 05:59:26;;;;;;;7.97;1.40;;;1.70;99.90;;;;;;5032898;28;20045;-72
2023/03/15 06:01:51;;;;;;;4.72;1.58;;;1.70;99.90;;;;;;5034490;28;20049;-72
2023/03/15 06:04:17;;;;;;;4.25;1.00;;;1.60;99.90;;;;;;5034130;28;20041;-72
2023/03/15 06:06:42;;;;;;;8.80;2.33;;;1.60;99.90;;;;;;5033399;28;20563;-72
2023/03/15 06:09:08;;;;;;;7.10;1.40;;;1.60;99.90;;;;;;5034210;28;20038;-72
2023/03/15 06:11:34;;;;;;;7.22;1.48;;;1.50;99.90;;;;;;5091488;22;20044;-70
2023/03/15 06:13:59;;;;;;;10.57;3.35;;;1.60;99.90;;;;;;5072985;28;20503;-70
2023/03/15 06:16:25;;;;;;;9.57;1.63;;;1.70;99.90;;;;;;5074166;28;20530;-68
2023/03/15 06:18:50;;;;;;;10.27;2.08;;;1.70;99.90;;;;;;5055347;28;20086;-69
2023/03/15 06:21:16;;;;;;;9.95;1.40;;;1.70;99.90;;;;;;5059127;28;20033;-69
2023/03/15 06:23:41;;;;;;;6.90;1.67;;;1.60;99.90;;;;;;5053559;28;20045;-69
2023/03/15 06:26:07;;;;;;;8.60;1.83;;;1.60;99.90;;;;;;5053777;28;20123;-69
2023/03/15 06:28:33;;;;;;;6.72;1.88;;;1.60;99.90;;;;;;5053634;28;20036;-69
2023/03/15 06:31:05;;;;;;;5.45;1.90;;;1.60;99.90;;;;;;5035615;28;20055;-69
2023/03/15 06:33:31;;;;;;;7.38;1.30;;;1.50;99.90;;;;;;5053652;28;20103;-70
2023/03/15 06:35:56;;;;;;;6.72;1.50;;;1.60;99.90;;;;;;5053495;28;20041;-69
2023/03/15 06:38:22;;;;;;;7.25;1.80;;;1.60;99.90;;;;;;5053540;28;20033;-69
2023/03/15 06:40:47;;;;;;;7.47;1.20;;;1.60;99.90;;;;;;5053156;28;20043;-70
2023/03/15 06:43:18;;;;;;;7.15;1.73;;;1.70;99.90;;;;;;5053243;28;20488;-70
2023/03/15 06:45:45;;;;;;;10.30;2.22;;;1.60;99.90;;;;;;5019033;28;20053;-69
2023/03/15 06:48:11;;;;;;;8.18;1.50;;;1.80;99.90;;;;;;5035538;28;20041;-69
2023/03/15 06:50:36;;;;;;;4.82;1.75;;;1.90;99.90;;;;;;5035318;28;20044;-69
2023/03/15 06:53:02;;;;;;;5.20;1.67;;;2.00;99.90;;;;;;5035639;28;20719;-70
2023/03/15 06:55:28;;;;;;;4.68;1.50;;;2.20;99.90;;;;;;5052382;28;20039;-70
2023/03/15 06:57:53;;;;;;;3.15;1.63;;;2.40;99.90;;;;;;5053115;28;20135;-70
2023/03/15 07:00:21;;;;;;;4.70;2.08;;;2.50;99.90;;;;;;5037461;28;20036;-69
2023/03/15 07:02:47;;;;;;;11.57;2.78;;;2.60;99.90;;;;;;5036655;28;20539;-69
2023/03/15 07:05:13;;;;;;;4.70;1.77;;;2.80;99.90;;;;;;5035197;28;20088;-69
2023/03/15 07:07:38;;;;;;;8.45;1.58;;;2.90;99.90;;;;;;5052942;28;20059;-69
2023/03/15 07:10:04;;;;;;;5.72;1.45;;;3.10;99.90;;;;;;5034796;28;20084;-68
2023/03/15 07:12:30;;;;;;;6.45;1.42;;;3.20;99.90;;;;;;5052787;28;20563;-68
2023/03/15 07:14:55;;;;;;;8.60;1.88;;;3.30;99.90;;;;;;5052479;28;20045;-68
2023/03/15 07:17:21;;;;;;;5.18;1.33;;;3.40;99.90;;;;;;5034473;28;20041;-68
2023/03/15 07:19:46;;;;;;;7.43;2.10;;;3.50;99.90;;;;;;5034476;28;20072;-69
2023/03/15 07:22:12;;;;;;;6.35;1.48;;;3.70;99.90;;;;;;5052100;28;20064;-69
2023/03/15 07:24:38;;;;;;;7.38;1.40;;;3.90;99.90;;;;;;5051640;28;20075;-68
2023/03/15 07:27:04;;;;;;;5.18;1.50;;;4.00;99.90;;;;;;5034170;28;20536;-68
2023/03/15 07:29:29;;;;;;;10.00;1.92;;;4.20;99.90;;;;;;5018144;28;20049;-69
2023/03/15 07:31:55;;;;;;;11.15;3.35;;;4.30;99.90;;;;;;5034344;28;20043;-68
2023/03/15 07:34:20;;;;;;;4.32;1.52;;;4.40;99.90;;;;;;5034280;28;20037;-68
2023/03/15 07:36:46;;;;;;;5.55;1.52;;;4.60;99.90;;;;;;5034577;28;20037;-68
2023/03/15 07:39:12;;;;;;;5.53;2.30;;;4.60;99.90;;;;;;5018029;28;20044;-69
2023/03/15 07:41:38;;;;;;;2.15;0.85;;;4.80;99.90;;;;;;5034371;28;20048;-68
2023/03/15 07:44:04;;;;;;;7.95;1.45;;;4.90;99.90;;;;;;5034154;28;20048;-68
2023/03/15 07:46:29;;;;;;;7.00;1.58;;;4.90;99.90;;;;;;5034356;28;20146;-68
2023/03/15 07:48:55;;;;;;;8.43;1.48;;;5.10;99.90;;;;;;5052040;28;20052;-69
2023/03/15 07:51:21;;;;;;;8.65;1.90;;;5.10;99.90;;;;;;5052174;28;20052;-69
2023/03/15 07:53:46;;;;;;;4.63;1.67;;;5.20;99.90;;;;;;5034356;28;20047;-69
2023/03/15 07:56:12;;;;;;;8.30;1.50;;;5.30;99.90;;;;;;5034225;28;20484;-69
2023/03/15 07:58:38;;;;;;;12.93;2.85;;;5.50;99.90;;;;;;5052343;28;20043;-69
2023/03/15 08:01:03;;;;;;;6.22;2.03;;;5.70;99.90;;;;;;5052015;28;20052;-69
2023/03/15 08:03:30;;;;;;;15.88;1.85;;;5.90;99.90;;;;;;5034043;28;20052;-69
2023/03/15 08:05:56;;;;;;;8.30;1.73;;;5.90;99.90;;;;;;5052052;28;20040;-69
2023/03/15 08:08:21;;;;;;;7.88;1.75;;;6.00;99.90;;;;;;5034309;28;20102;-69
2023/03/15 08:10:47;;;;;;;6.68;2.22;;;6.10;99.90;;;;;;5051607;28;20032;-69
2023/03/15 08:13:13;;;;;;;5.90;1.50;;;6.10;99.90;;;;;;5051910;28;20490;-69
2023/03/15 08:15:39;;;;;;;6.00;1.80;;;6.20;99.90;;;;;;5033816;28;20040;-69
2023/03/15 08:18:05;;;;;;;6.40;1.55;;;6.20;99.90;;;;;;5033158;28;20167;-69
2023/03/15 08:20:32;;;;;;;7.70;2.00;;;6.30;99.90;;;;;;5033650;28;20436;-69
2023/03/15 08:22:58;;;;;;;6.97;2.25;;;6.50;99.90;;;;;;5051569;28;20050;-68
2023/03/15 08:25:24;;;;;;;8.80;2.17;;;6.50;99.90;;;;;;5033478;28;20040;-69
2023/03/15 08:27:50;;;;;;;10.40;1.98;;;6.60;99.90;;;;;;5033983;28;20037;-68
2023/03/15 08:30:17;;;;;;;6.90;1.65;;;6.70;99.90;;;;;;5033278;28;20485;-68
2023/03/15 08:32:44;;;;;;;13.68;2.03;;;6.70;99.90;;;;;;5033536;28;20041;-69
2023/03/15 08:35:14;;;;;;;12.13;1.92;;;6.70;99.90;;;;;;5033422;28;20037;-68
2023/03/15 08:37:40;;;;;;;8.85;1.67;;;6.80;99.90;;;;;;5016871;28;20499;-68
2023/03/15 08:40:10;;;;;;;8.45;2.25;;;6.70;99.90;;;;;;5033461;28;20056;-69
2023/03/15 08:42:36;;;;;;;10.88;2.65;;;6.70;99.90;;;;;;5033582;28;20048;-68
2023/03/15 08:45:03;;;;;;;9.70;1.80;;;6.70;99.90;;;;;;5051223;28;20073;-68
2023/03/15 08:47:29;;;;;;;12.13;2.75;;;6.80;99.90;;;;;;5033763;28;20488;-70
2023/03/15 08:49:55;;;;;;;8.85;2.00;;;6.90;99.90;;;;;;5051228;28;20029;-68
2023/03/15 08:52:21;;;;;;;11.80;1.63;;;6.90;99.90;;;;;;5051301;28;20098;-68
2023/03/15 08:54:47;;;;;;;5.15;1.70;;;7.00;99.90;;;;;;5016988;28;20040;-68
2023/03/15 08:57:13;;;;;;;6.82;1.67;;;7.00;99.90;;;;;;5032843;28;20424;-69
2023/03/15 08:59:39;;;;;;;10.65;1.90;;;7.10;99.90;;;;;;5033241;28;20488;-69
2023/03/15 09:02:06;;;;;;;6.32;3.40;;;7.10;99.90;;;;;;5033410;28;20041;-69
2023/03/15 09:04:32;;;;;;;7.97;1.80;;;7.20;99.90;;;;;;5050963;28;20076;-68
2023/03/15 09:06:57;;;;;;;6.53;1.77;;;7.20;99.90;;;;;;5051139;28;20041;-69
2023/03/15 09:09:23;;;;;;;9.82;1.65;;;7.10;99.90;;;;;;5028998;28;20060;-69
2023/03/15 09:11:49;;;;;;;5.55;1.30;;;7.20;99.90;;;;;;5028191;28;20025;-69
2023/03/15 09:14:14;;;;;;;7.70;1.65;;;7.20;99.90;;;;;;5016358;28;20485;-68
2023/03/15 09:16:40;;;;;;;3.90;1.27;;;7.10;99.90;;;;;;5013692;28;20120;-69
2023/03/15 09:19:06;;;;;;;8.80;1.48;;;7.20;99.90;;;;;;5013878;28;20045;-69
2023/03/15 09:21:31;;;;;;;3.90;1.38;;;7.20;99.90;;;;;;5031117;28;20037;-69
2023/03/15 09:23:57;;;;;;;10.20;2.72;;;7.10;99.90;;;;;;5041979;28;20116;-68
2023/03/15 09:26:22;;;;;;;9.18;1.10;;;7.20;99.90;;;;;;5049050;28;20044;-69
2023/03/15 09:28:48;;;;;;;6.15;1.50;;;7.10;99.90;;;;;;5042807;28;20037;-69
2023/03/15 09:31:13;;;;;;;6.13;1.17;;;7.10;99.90;;;;;;5016191;28;20041;-69
2023/03/15 09:33:39;;;;;;;6.55;1.20;;;7.20;99.90;;;;;;5025221;28;20041;-69
2023/03/15 09:36:05;;;;;;;9.68;2.20;;;7.10;99.90;;;;;;5033470;28;20041;-69
2023/03/15 09:38:31;;;;;;;7.85;1.15;;;7.00;99.90;;;;;;5033087;28;20037;-69
2023/03/15 09:40:58;;;;;;;6.38;1.27;;;7.00;99.90;;;;;;5033863;28;20109;-69
2023/03/15 09:43:48;;;;;;;10.35;2.08;;;7.00;99.90;;;;;;5033942;28;20083;-69
2023/03/15 09:46:28;;;;;;;5.28;1.80;;;6.90;99.90;;;;;;5030573;28;20535;-68
2023/03/15 09:49:16;;;;;;;7.95;1.88;;;6.90;99.90;;;;;;5035241;28;20083;-69
2023/03/15 09:51:56;;;;;;;8.10;2.08;;;6.90;99.90;;;;;;5029649;28;20033;-68
2023/03/15 09:54:28;;;;;;;11.15;3.05;;;6.90;99.90;;;;;;5034799;28;20096;-68
2023/03/15 09:57:08;;;;;;;7.32;1.60;;;6.90;99.90;;;;;;5036303;28;20118;-68
2023/03/15 09:59:38;;;;;;;6.53;1.52;;;7.00;99.90;;;;;;5054204;28;20040;-69
2023/03/15 10:02:16;;;;;;;7.60;1.58;;;7.00;99.90;;;;;;5053998;28;20488;-68
2023/03/15 10:04:44;;;;;;;10.15;2.20;;;7.00;99.90;;;;;;5053583;28;20110;-67
2023/03/15 10:07:15;;;;;;;3.38;1.25;;;7.00;99.90;;;;;;5047104;28;20041;-69
2023/03/15 10:09:41;;;;;;;6.25;1.63;;;7.10;99.90;;;;;;5035212;28;20052;-68
2023/03/15 10:12:13;;;;;;;7.65;1.48;;;7.20;99.90;;;;;;5053809;28;20033;-68
2023/03/15 10:14:47;;;;;;;6.78;1.13;;;7.10;99.90;;;;;;5035405;28;20056;-68
2023/03/15 10:17:31;;;;;;;6.82;1.30;;;7.20;99.90;;;;;;5035874;28;20451;-68
2023/03/15 10:20:02;;;;;;;7.45;1.48;;;7.20;99.90;;;;;;5053510;28;20112;-68
2023/03/15 10:22:56;;;;;;;8.88;1.55;;;7.20;99.50;;;;;;5035617;28;20041;-68
2023/03/15 10:25:30;;;;;;;7.50;1.38;;;7.20;99.50;;;;;;5004044;28;20087;-68
2023/03/15 10:28:22;;;;;;;4.75;1.40;;;7.30;99.60;;;;;;5035535;28;20036;-68
2023/03/15 10:30:49;;;;;;;6.53;1.45;;;7.30;99.60;;;;;;5053413;28;20041;-68
2023/03/15 10:33:17;;;;;;;5.32;1.23;;;7.40;98.70;;;;;;5035398;28;20033;-68
2023/03/15 10:35:43;;;;;;;6.60;2.25;;;7.50;99.90;;;;;;5035592;28;20041;-68
2023/03/15 10:38:27;;;;;;;6.47;2.22;;;7.40;98.90;;;;;;5035409;28;20174;-68
2023/03/15 10:40:57;;;;;;;5.15;1.85;;;7.50;97.20;;;;;;5028500;28;20033;-70
2023/03/15 10:43:26;;;;;;;5.90;1.38;;;7.50;98.00;;;;;;5053260;28;20045;-70
2023/03/15 10:46:22;;;;;;;6.38;1.40;;;7.60;97.60;;;;;;5035118;28;20052;-70
2023/03/15 10:48:59;;;;;;;4.45;1.27;;;7.40;95.90;;;;;;5053133;28;20049;-70
2023/03/15 10:51:36;;;;;;;5.03;1.63;;;7.40;95.90;;;;;;5034854;28;20505;-70
2023/03/15 10:54:18;;;;;;;4.85;1.42;;;7.40;96.80;;;;;;5034890;28;20487;-70
2023/03/15 10:56:48;;;;;;;9.65;2.10;;;7.40;97.10;;;;;;5035448;28;20677;-70
2023/03/15 10:59:20;;;;;;;6.13;1.02;;;7.40;97.70;;;;;;5052578;28;20504;-71
2023/03/15 11:01:48;;;;;;;7.47;1.50;;;7.50;97.80;;;;;;5034502;28;20037;-70
2023/03/15 11:04:18;;;;;;;4.63;1.48;;;7.50;97.70;;;;;;5052041;28;20032;-71
2023/03/15 11:06:50;;;;;;;6.07;1.42;;;7.50;97.50;;;;;;5052579;28;20059;-68
2023/03/15 11:09:17;;;;;;;9.18;1.50;;;7.60;98.40;;;;;;5034815;28;20037;-69
2023/03/15 11:12:04;;;;;;;7.97;1.27;;;7.60;97.20;;;;;;5034149;28;20041;-69
2023/03/15 11:14:42;;;;;;;6.38;1.42;;;7.70;96.50;;;;;;5018017;28;20123;-69
2023/03/15 11:17:16;;;;;;;4.15;1.40;;;7.70;96.20;;;;;;5034891;28;20045;-69
2023/03/15 11:19:50;;;;;;;5.90;1.50;;;7.80;96.20;;;;;;5034534;28;20052;-69
2023/03/15 11:22:16;;;;;;;7.80;1.08;;;7.80;96.60;;;;;;5034584;28;20814;-69
2023/03/15 11:24:41;;;;;;;6.53;1.85;;;7.80;96.50;;;;;;5052299;28;20049;-69
2023/03/15 11:27:13;;;;;;;4.50;1.48;;;7.90;97.00;;;;;;5034430;28;20099;-70
2023/03/15 11:29:51;;;;;;;5.53;1.60;;;8.00;97.40;;;;;;5052035;28;20040;-69
2023/03/15 11:32:20;;;;;;;4.43;1.10;;;8.00;95.90;;;;;;5034568;28;20439;-70
2023/03/15 11:34:58;;;;;;;7.03;1.65;;;8.00;96.60;;;;;;5051776;28;20048;-71
2023/03/15 11:37:46;;;;;;;4.55;1.45;;;7.90;95.30;;;;;;5034477;28;20048;-71
2023/03/15 11:40:20;;;;;;;14.23;1.95;;;8.00;97.50;;;;;;5024478;28;20465;-71
2023/03/15 11:43:04;;;;;;;6.93;2.65;;;8.00;95.40;;;;;;5052204;28;20080;-71
2023/03/15 11:45:48;;;;;;;3.97;1.10;;;7.90;94.70;;;;;;5034163;28;20123;-71
2023/03/15 11:48:39;;;;;;;8.90;1.67;;;7.90;94.90;;;;;;5034113;28;20040;-71
2023/03/15 11:51:06;;;;;;;5.40;1.42;;;7.80;94.10;;;;;;5034169;28;20120;-71
2023/03/15 11:53:37;;;;;;;6.97;1.23;;;7.80;95.60;;;;;;5051904;28;20033;-69
2023/03/15 11:56:24;;;;;;;5.25;1.50;;;7.80;94.60;;;;;;5034559;28;20056;-69
2023/03/15 11:59:10;;;;;;;6.43;1.02;;;7.80;94.00;;;;;;5034246;28;20120;-70
2023/03/15 12:01:36;;;;;;;4.75;1.20;;;7.90;94.90;;;;;;5033954;28;20041;-71
2023/03/15 12:04:30;;;;;;;4.70;1.20;;;8.00;94.70;;;;;;5032678;28;20033;-71
2023/03/15 12:06:57;;;;;;;10.32;1.58;;;8.00;93.90;;;;;;5028419;28;20057;-71
2023/03/15 12:09:32;;;;;;;6.35;1.50;;;8.20;96.60;;;;;;5033735;28;20049;-69
2023/03/15 12:12:00;;;;;;;4.22;1.20;;;8.40;97.40;;;;;;5053759;22;20128;-70
2023/03/15 12:14:32;;;;;;;3.70;1.08;;;8.50;98.50;;;;;;5031115;28;20053;-72
2023/03/15 12:17:22;;;;;;;5.45;1.40;;;8.60;97.60;;;;;;5032095;28;20040;-72
2023/03/15 12:20:17;;;;;;;4.57;1.10;;;8.50;94.50;;;;;;5031587;28;20049;-72
2023/03/15 12:22:50;;;;;;;6.40;1.30;;;8.50;94.00;;;;;;5010857;28;20064;-73
2023/03/15 12:25:19;;;;;;;4.72;1.33;;;8.40;93.50;;;;;;5011993;28;20049;-72
2023/03/15 12:27:52;;;;;;;5.32;1.70;;;8.40;94.40;;;;;;5011818;28;20065;-72
2023/03/15 12:30:22;;;;;;;7.20;1.10;;;8.30;94.20;;;;;;4993732;28;20054;-71
2023/03/15 12:32:52;;;;;;;7.50;1.33;;;8.40;94.00;;;;;;5011641;28;20493;-72
2023/03/15 12:35:21;;;;;;;4.90;1.13;;;8.30;93.40;;;;;;5010297;28;20042;-71
2023/03/15 12:37:52;;;;;;;6.03;1.65;;;8.30;92.80;;;;;;5011970;28;20379;-71
2023/03/15 12:40:19;;;;;;;3.85;1.00;;;8.20;92.00;;;;;;5011710;28;20041;-71
2023/03/15 12:42:47;;;;;;;6.35;0.98;;;8.20;90.60;;;;;;5010369;28;20049;-71
2023/03/15 12:45:16;;;;;;;3.25;1.13;;;8.20;89.50;;;;;;5011581;28;20413;-71
2023/03/15 12:47:50;;;;;;;4.82;1.20;;;8.20;90.80;;;;;;5010774;28;20042;-71
2023/03/15 12:50:49;;;;;;;6.45;1.60;;;8.20;91.30;;;;;;5011763;28;20050;-71
2023/03/15 12:53:37;;;;;;;4.43;1.33;;;8.20;91.80;;;;;;5010671;28;20077;-71
2023/03/15 12:56:17;;;;;;;2.60;1.00;;;8.20;91.80;;;;;;5011766;28;20042;-71
2023/03/15 12:58:47;;;;;;;5.78;1.15;;;8.20;91.10;;;;;;5010484;28;20505;-71
2023/03/15 13:01:15;;;;;;;4.70;1.23;;;8.20;92.60;;;;;;5010432;28;20041;-71
2023/03/15 13:03:42;;;;;;;6.38;1.45;;;8.20;91.50;;;;;;5011472;28;20053;-71